createdAt,value
2023-04-25T00:00:56.438Z,14.23
2023-04-25T00:03:23.640Z,18.20
2023-04-25T00:05:51.509Z,14.27
2023-04-25T00:08:18.579Z,15.80
2023-04-25T00:10:45.316Z,14.50
2023-04-25T00:13:12.552Z,13.13
2023-04-25T00:15:39.867Z,10.77
2023-04-25T00:18:07.429Z,17.97
2023-04-25T00:20:34.218Z,12.97
2023-04-25T00:23:00.875Z,14.90
2023-04-25T00:25:27.797Z,14.47
2023-04-25T00:27:54.495Z,16.30
2023-04-25T00:30:21.180Z,10.47
2023-04-25T00:32:47.988Z,11.93
2023-04-25T00:35:14.629Z,14.30
2023-04-25T00:37:41.616Z,17.87
2023-04-25T00:40:08.971Z,12.53
2023-04-25T00:42:37.859Z,13.80
2023-04-25T00:45:06.841Z,16.77
2023-04-25T00:47:34.363Z,14.33
2023-04-25T00:50:01.147Z,20.10
2023-04-25T00:52:28.150Z,19.67
2023-04-25T00:54:55.199Z,15.90
2023-04-25T00:57:21.856Z,15.70
2023-04-25T00:59:49.369Z,15.17
2023-04-25T01:02:16.478Z,16.07
2023-04-25T01:04:43.256Z,15.07
2023-04-25T01:07:11.099Z,14.17
2023-04-25T01:09:37.897Z,17.47
2023-04-25T01:12:04.874Z,18.03
2023-04-25T01:14:31.727Z,19.30
2023-04-25T01:16:59.465Z,19.27
2023-04-25T01:19:26.385Z,18.63
2023-04-25T01:21:53.208Z,17.47
2023-04-25T01:24:20.026Z,17.40
2023-04-25T01:26:50.857Z,13.40
2023-04-25T01:29:21.533Z,15.37
2023-04-25T01:31:48.303Z,12.50
2023-04-25T01:34:15.050Z,11.97
2023-04-25T01:36:41.960Z,16.00
2023-04-25T01:39:11.891Z,15.00
2023-04-25T01:41:38.870Z,17.83
2023-04-25T01:44:05.904Z,18.47
2023-04-25T01:46:34.831Z,17.37
2023-04-25T01:49:01.979Z,20.77
2023-04-25T01:51:29.023Z,10.13
2023-04-25T01:53:56.269Z,19.47
2023-04-25T01:56:22.986Z,17.40
2023-04-25T01:58:50.315Z,11.10
2023-04-25T02:01:17.091Z,16.90
2023-04-25T02:03:44.423Z,16.17
2023-04-25T02:06:11.551Z,20.17
2023-04-25T02:08:38.570Z,17.90
2023-04-25T02:11:05.307Z,12.33
2023-04-25T02:13:32.010Z,20.00
2023-04-25T02:15:58.897Z,17.33
2023-04-25T02:18:27.373Z,19.83
2023-04-25T02:20:54.188Z,16.70
2023-04-25T02:23:21.157Z,16.53
2023-04-25T02:25:48.030Z,17.80
2023-04-25T02:28:14.727Z,14.33
2023-04-25T02:30:41.740Z,14.67
2023-04-25T02:33:08.544Z,16.70
2023-04-25T02:35:35.297Z,15.30
2023-04-25T02:38:02.055Z,15.33
2023-04-25T02:40:28.821Z,19.80
2023-04-25T02:42:55.488Z,18.57
2023-04-25T02:45:22.538Z,23.83
2023-04-25T02:47:49.295Z,21.30
2023-04-25T02:50:15.980Z,18.20
2023-04-25T02:52:42.642Z,17.33
2023-04-25T02:55:09.907Z,17.63
2023-04-25T02:57:36.676Z,21.50
2023-04-25T03:00:05.802Z,27.03
2023-04-25T03:02:32.553Z,23.37
2023-04-25T03:04:59.477Z,16.17
2023-04-25T03:07:26.236Z,27.63
2023-04-25T03:09:53.335Z,18.20
2023-04-25T03:12:21.059Z,19.33
2023-04-25T03:14:47.975Z,27.90
2023-04-25T03:17:14.793Z,22.97
2023-04-25T03:19:41.577Z,17.57
2023-04-25T03:22:08.340Z,19.13
2023-04-25T03:24:34.978Z,19.43
2023-04-25T03:27:01.686Z,17.07
2023-04-25T03:29:29.961Z,22.23
2023-04-25T03:31:56.676Z,23.87
2023-04-25T03:34:23.439Z,16.37
2023-04-25T03:36:50.358Z,21.63
2023-04-25T03:39:17.066Z,15.10
2023-04-25T03:41:43.766Z,21.83
2023-04-25T03:44:10.586Z,20.37
2023-04-25T03:46:37.265Z,18.80
2023-04-25T03:49:04.321Z,20.13
2023-04-25T03:51:32.299Z,21.73
2023-04-25T03:53:59.254Z,20.90
2023-04-25T03:56:25.971Z,17.53
2023-04-25T03:58:53.252Z,20.00
2023-04-25T04:01:21.100Z,18.07
2023-04-25T04:03:48.916Z,18.53
2023-04-25T04:06:16.064Z,19.23
2023-04-25T04:08:42.724Z,15.93
2023-04-25T04:11:09.451Z,18.50
2023-04-25T04:13:36.620Z,16.67
2023-04-25T04:16:16.593Z,21.53
2023-04-25T04:18:47.487Z,16.70
2023-04-25T04:21:34.589Z,15.73
2023-04-25T04:24:21.464Z,20.40
2023-04-25T04:26:48.617Z,17.97
2023-04-25T04:29:22.253Z,19.03
2023-04-25T04:32:09.779Z,21.90
2023-04-25T04:34:37.158Z,19.20
2023-04-25T04:37:04.088Z,19.67
2023-04-25T04:39:31.025Z,22.90
2023-04-25T04:41:57.790Z,15.47
2023-04-25T04:44:24.554Z,12.00
2023-04-25T04:46:51.722Z,15.00
2023-04-25T04:49:18.617Z,19.33
2023-04-25T04:51:45.696Z,23.90
2023-04-25T04:54:12.391Z,20.80
2023-04-25T04:56:39.363Z,21.47
2023-04-25T04:59:06.074Z,19.97
2023-04-25T05:01:32.840Z,19.13
2023-04-25T05:04:03.790Z,16.60
2023-04-25T05:06:32.220Z,17.87
2023-04-25T05:08:59.243Z,18.23
2023-04-25T05:11:26.322Z,15.77
2023-04-25T05:13:54.117Z,22.40
2023-04-25T05:16:21.536Z,21.70
2023-04-25T05:18:48.845Z,13.87
2023-04-25T05:21:15.567Z,11.67
2023-04-25T05:23:42.205Z,21.07
2023-04-25T05:26:14.751Z,18.17
2023-04-25T05:28:42.846Z,15.60
2023-04-25T05:31:11.456Z,19.07
2023-04-25T05:33:38.320Z,17.40
2023-04-25T05:36:05.729Z,13.33
2023-04-25T05:38:34.604Z,13.33
2023-04-25T05:41:01.800Z,15.70
2023-04-25T05:43:28.563Z,14.37
2023-04-25T05:45:56.300Z,13.17
2023-04-25T05:48:23.126Z,19.07
2023-04-25T05:50:49.893Z,20.27
2023-04-25T05:53:16.666Z,15.40
2023-04-25T05:55:43.439Z,17.00
2023-04-25T05:58:10.166Z,17.03
2023-04-25T06:00:36.994Z,18.03
2023-04-25T06:03:04.035Z,19.67
2023-04-25T06:05:31.325Z,11.83
2023-04-25T06:07:58.803Z,11.53
2023-04-25T06:10:25.881Z,14.70
2023-04-25T06:12:53.655Z,15.93
2023-04-25T06:15:28.206Z,14.27
2023-04-25T06:17:57.290Z,13.83
2023-04-25T06:20:25.466Z,18.83
2023-04-25T06:22:55.648Z,14.10
2023-04-25T06:25:22.521Z,13.77
2023-04-25T06:27:49.308Z,15.83
2023-04-25T06:30:17.558Z,14.83
2023-04-25T06:32:44.335Z,15.90
2023-04-25T06:35:11.410Z,9.30
2023-04-25T06:37:38.807Z,16.10
2023-04-25T06:40:06.466Z,15.43
2023-04-25T06:42:33.542Z,18.80
2023-04-25T06:45:01.094Z,16.40
2023-04-25T06:47:27.963Z,12.13
2023-04-25T06:49:54.670Z,10.90
2023-04-25T06:52:21.310Z,10.67
2023-04-25T06:54:48.185Z,13.77
2023-04-25T06:57:14.815Z,10.47
2023-04-25T06:59:41.543Z,14.93
2023-04-25T07:02:08.395Z,11.47
2023-04-25T07:04:35.309Z,11.77
2023-04-25T07:07:03.809Z,9.37
2023-04-25T07:09:31.301Z,9.90
2023-04-25T07:11:58.213Z,12.37
2023-04-25T07:14:25.134Z,16.87
2023-04-25T07:16:51.829Z,10.93
2023-04-25T07:19:18.578Z,13.37
2023-04-25T07:21:45.259Z,9.43
2023-04-25T07:24:12.023Z,10.93
2023-04-25T07:26:38.773Z,12.23
2023-04-25T07:29:05.839Z,11.07
2023-04-25T07:31:32.601Z,11.10
2023-04-25T07:34:01.854Z,11.53
2023-04-25T07:36:28.986Z,10.40
2023-04-25T07:38:55.794Z,10.07
2023-04-25T07:41:22.547Z,7.80
2023-04-25T07:43:49.772Z,9.53
2023-04-25T07:46:16.573Z,8.63
2023-04-25T07:48:43.355Z,8.90
2023-04-25T07:51:10.161Z,13.50
2023-04-25T07:53:38.770Z,8.50
2023-04-25T07:56:05.910Z,13.43
2023-04-25T07:58:32.673Z,11.83
2023-04-25T08:00:59.447Z,13.47
2023-04-25T08:03:26.321Z,11.00
2023-04-25T08:05:53.383Z,10.13
2023-04-25T08:08:20.517Z,10.40
2023-04-25T08:10:49.117Z,13.10
2023-04-25T08:13:16.043Z,8.67
2023-04-25T08:15:42.744Z,10.20
2023-04-25T08:18:09.902Z,11.67
2023-04-25T08:20:37.035Z,11.50
2023-04-25T08:23:03.835Z,8.37
2023-04-25T08:25:30.577Z,8.27
2023-04-25T08:27:58.209Z,10.10
2023-04-25T08:30:24.949Z,11.20
2023-04-25T08:32:52.123Z,11.03
2023-04-25T08:35:19.219Z,13.70
2023-04-25T08:37:45.993Z,9.30
2023-04-25T08:40:15.891Z,7.90
2023-04-25T08:42:43.670Z,9.90
2023-04-25T08:45:11.306Z,7.87
2023-04-25T08:47:41.031Z,7.10
2023-04-25T08:50:08.185Z,11.60
2023-04-25T08:52:45.762Z,7.13
2023-04-25T08:55:14.245Z,7.37
2023-04-25T08:57:43.903Z,9.23
2023-04-25T09:00:13.661Z,6.10
2023-04-25T09:02:41.119Z,7.17
2023-04-25T09:05:11.088Z,8.80
2023-04-25T09:07:37.866Z,9.03
2023-04-25T09:10:04.897Z,7.50
2023-04-25T09:12:32.890Z,6.40
2023-04-25T09:15:11.895Z,11.23
2023-04-25T09:17:41.612Z,7.17
2023-04-25T09:20:09.660Z,7.83
2023-04-25T09:22:37.612Z,8.43
2023-04-25T09:25:12.323Z,9.40
2023-04-25T09:27:52.193Z,5.97
2023-04-25T09:30:19.230Z,9.47
2023-04-25T09:32:46.677Z,7.40
2023-04-25T09:35:24.757Z,7.17
2023-04-25T09:37:51.710Z,5.97
2023-04-25T09:40:19.628Z,4.80
2023-04-25T09:42:46.483Z,3.73
2023-04-25T09:45:16.255Z,6.43
2023-04-25T09:47:45.042Z,7.67
2023-04-25T09:50:16.997Z,10.47
2023-04-25T09:52:44.513Z,8.70
2023-04-25T09:55:11.494Z,5.83
2023-04-25T09:57:41.840Z,6.97
2023-04-25T10:00:13.285Z,6.97
2023-04-25T10:02:43.707Z,5.90
2023-04-25T10:05:11.866Z,9.00
2023-04-25T10:07:39.865Z,6.70
2023-04-25T10:10:07.186Z,7.87
2023-04-25T10:12:34.996Z,7.23
2023-04-25T10:15:03.895Z,5.63
2023-04-25T10:17:32.673Z,5.20
2023-04-25T10:20:01.500Z,5.93
2023-04-25T10:22:35.330Z,4.50
2023-04-25T10:25:05.171Z,6.23
2023-04-25T10:27:32.772Z,5.50
2023-04-25T10:30:14.183Z,6.23
2023-04-25T10:32:43.155Z,6.67
2023-04-25T10:35:24.969Z,8.03
2023-04-25T10:38:04.872Z,6.77
2023-04-25T10:40:32.668Z,7.70
2023-04-25T10:43:38.842Z,9.13
2023-04-25T10:46:26.025Z,5.90
2023-04-25T10:48:56.910Z,4.13
2023-04-25T10:51:43.305Z,7.93
2023-04-25T10:54:21.180Z,4.80
2023-04-25T10:56:49.897Z,5.50
2023-04-25T10:59:19.331Z,4.93
2023-04-25T11:01:48.153Z,4.73
2023-04-25T11:04:37.073Z,5.60
2023-04-25T11:09:51.581Z,3.70
2023-04-25T11:12:18.717Z,5.43
2023-04-25T11:14:45.531Z,4.07
2023-04-25T11:17:12.871Z,3.90
2023-04-25T11:19:39.866Z,8.10
2023-04-25T11:22:07.899Z,10.73
2023-04-25T11:24:36.452Z,6.07
2023-04-25T11:27:04.978Z,3.80
2023-04-25T11:29:33.325Z,3.23
2023-04-25T11:32:02.056Z,4.97
2023-04-25T11:34:31.868Z,3.20
2023-04-25T11:36:59.482Z,1.93
2023-04-25T11:39:26.956Z,20.43
2023-04-25T11:41:54.383Z,5.90
2023-04-25T11:44:22.446Z,5.73
2023-04-25T11:46:49.341Z,3.83
2023-04-25T11:49:16.587Z,4.30
2023-04-25T11:51:44.861Z,6.63
2023-04-25T11:54:12.806Z,4.50
2023-04-25T11:56:46.616Z,6.07
2023-04-25T11:59:14.300Z,8.33
2023-04-25T12:01:50.601Z,4.03
2023-04-25T12:04:20.087Z,9.17
2023-04-25T12:06:49.492Z,3.87
2023-04-25T12:09:19.582Z,4.83
2023-04-25T12:11:53.720Z,3.13
2023-04-25T12:14:28.616Z,5.37
2023-04-25T12:17:03.749Z,3.93
2023-04-25T12:19:35.366Z,3.37
2023-04-25T12:22:21.221Z,3.57
2023-04-25T12:24:47.988Z,2.57
2023-04-25T12:27:21.042Z,4.30
2023-04-25T12:29:57.844Z,4.00
2023-04-25T12:32:24.966Z,9.77
2023-04-25T12:34:51.690Z,3.73
2023-04-25T12:37:18.525Z,3.03
2023-04-25T12:39:45.268Z,4.53
2023-04-25T12:42:14.971Z,5.07
2023-04-25T12:44:42.404Z,6.07
2023-04-25T12:47:09.520Z,5.53
2023-04-25T12:49:36.553Z,6.83
2023-04-25T12:52:03.307Z,5.50
2023-04-25T12:54:30.069Z,4.50
2023-04-25T12:56:57.410Z,4.27
2023-04-25T12:59:24.206Z,4.17
2023-04-25T13:01:50.956Z,5.83
2023-04-25T13:04:18.803Z,4.53
2023-04-25T13:06:45.811Z,3.13
2023-04-25T13:09:13.595Z,12.00
2023-04-25T13:11:42.038Z,4.30
2023-04-25T13:14:08.910Z,6.87
2023-04-25T13:16:35.807Z,3.10
2023-04-25T13:19:02.614Z,3.07
2023-04-25T13:21:33.501Z,4.30
2023-04-25T13:24:03.330Z,4.97
2023-04-25T13:26:30.317Z,4.27
2023-04-25T13:28:57.094Z,2.63
2023-04-25T13:31:23.771Z,3.63
2023-04-25T13:33:50.808Z,4.83
2023-04-25T13:36:17.793Z,6.27
2023-04-25T13:38:46.170Z,3.40
2023-04-25T13:41:17.145Z,4.47
2023-04-25T13:43:44.692Z,2.67
2023-04-25T13:46:29.988Z,5.10
2023-04-25T13:49:06.173Z,2.57
2023-04-25T13:51:38.642Z,4.83
2023-04-25T13:54:05.498Z,3.67
2023-04-25T13:56:32.398Z,2.83
2023-04-25T13:58:59.173Z,8.70
2023-04-25T14:01:26.043Z,3.10
2023-04-25T14:03:53.025Z,4.37
2023-04-25T14:06:23.886Z,3.80
2023-04-25T14:08:54.558Z,4.23
2023-04-25T14:11:21.365Z,3.77
2023-04-25T14:13:49.437Z,4.67
2023-04-25T14:16:17.561Z,3.53
2023-04-25T14:18:44.251Z,3.37
2023-04-25T14:21:11.115Z,3.13
2023-04-25T14:23:37.761Z,5.27
2023-04-25T14:26:04.571Z,4.47
2023-04-25T14:28:32.056Z,3.40
2023-04-25T14:30:58.851Z,3.47
2023-04-25T14:33:25.992Z,3.07
2023-04-25T14:35:52.903Z,9.07
2023-04-25T14:38:24.279Z,3.50
2023-04-25T14:40:51.142Z,4.23
2023-04-25T14:43:17.949Z,2.63
2023-04-25T14:45:44.750Z,4.27
2023-04-25T14:48:11.693Z,3.70
2023-04-25T14:50:38.482Z,3.13
2023-04-25T14:53:05.180Z,2.37
2023-04-25T14:55:31.894Z,6.07
2023-04-25T14:57:58.771Z,3.67
2023-04-25T15:00:26.388Z,2.80
2023-04-25T15:02:53.516Z,5.67
2023-04-25T15:05:21.183Z,2.70
2023-04-25T15:07:48.906Z,3.60
2023-04-25T15:10:17.098Z,3.60
2023-04-25T15:12:46.893Z,4.47
2023-04-25T15:15:19.837Z,2.97
2023-04-25T15:17:52.198Z,5.33
2023-04-25T15:20:18.960Z,2.53
2023-04-25T15:22:49.761Z,6.30
2023-04-25T15:25:20.713Z,4.00
2023-04-25T15:27:49.779Z,4.30
2023-04-25T15:30:17.991Z,5.00
2023-04-25T15:32:46.430Z,4.77
2023-04-25T15:35:13.938Z,4.93
2023-04-25T15:37:41.471Z,6.53
2023-04-25T15:40:12.222Z,6.07
2023-04-25T15:42:53.063Z,3.00
2023-04-25T15:45:24.230Z,5.20
2023-04-25T15:47:53.016Z,6.33
2023-04-25T15:50:20.149Z,3.50
2023-04-25T15:52:49.391Z,4.43
2023-04-25T15:55:17.573Z,6.07
2023-04-25T15:57:44.538Z,5.70
2023-04-25T16:00:13.356Z,3.93
2023-04-25T16:02:41.574Z,6.67
2023-04-25T16:05:09.275Z,7.97
2023-04-25T16:07:36.419Z,10.43
2023-04-25T16:10:03.897Z,4.33
2023-04-25T16:12:31.387Z,6.50
2023-04-25T16:14:58.461Z,5.60
2023-04-25T16:17:26.412Z,7.13
2023-04-25T16:19:53.103Z,7.70
2023-04-25T16:22:19.810Z,4.33
2023-04-25T16:24:46.577Z,4.70
2023-04-25T16:27:13.412Z,5.77
2023-04-25T16:29:40.110Z,5.60
2023-04-25T16:32:07.598Z,5.03
2023-04-25T16:34:34.339Z,7.87
2023-04-25T16:37:01.644Z,6.77
2023-04-25T16:39:28.296Z,5.30
2023-04-25T16:41:55.298Z,5.67
2023-04-25T16:44:22.098Z,4.70
2023-04-25T16:46:48.964Z,4.33
2023-04-25T16:49:15.984Z,5.20
2023-04-25T16:51:42.746Z,4.23
2023-04-25T16:54:09.415Z,3.47
2023-04-25T16:56:36.228Z,4.50
2023-04-25T16:59:02.890Z,4.37
2023-04-25T17:01:30.077Z,4.13
2023-04-25T17:03:56.995Z,6.30
2023-04-25T17:06:23.824Z,5.70
2023-04-25T17:08:51.090Z,4.23
2023-04-25T17:11:18.913Z,3.97
2023-04-25T17:13:46.012Z,2.67
2023-04-25T17:16:16.467Z,5.27
2023-04-25T17:18:44.054Z,6.07
2023-04-25T17:21:10.934Z,3.63
2023-04-25T17:23:37.720Z,7.57
2023-04-25T17:26:06.455Z,6.30
2023-04-25T17:28:33.126Z,5.57
2023-04-25T17:31:00.254Z,4.93
2023-04-25T17:33:27.276Z,4.37
2023-04-25T17:35:54.412Z,5.43
2023-04-25T17:38:21.720Z,3.80
2023-04-25T17:40:48.865Z,3.20
2023-04-25T17:43:15.771Z,3.97
2023-04-25T17:45:42.552Z,4.63
2023-04-25T17:48:09.409Z,5.37
2023-04-25T17:50:36.050Z,4.70
2023-04-25T17:53:06.064Z,4.40
2023-04-25T17:55:32.826Z,4.83
2023-04-25T17:57:59.444Z,6.50
2023-04-25T18:00:26.126Z,8.47
2023-04-25T18:02:53.023Z,5.57
2023-04-25T18:05:20.004Z,4.93
2023-04-25T18:07:46.697Z,4.47
2023-04-25T18:10:14.806Z,4.33
2023-04-25T18:12:41.648Z,9.63
2023-04-25T18:15:09.347Z,5.63
2023-04-25T18:20:31.477Z,6.63
2023-04-25T18:23:03.590Z,5.33
2023-04-25T18:25:31.946Z,3.43
2023-04-25T18:28:02.288Z,9.40
2023-04-25T18:30:38.128Z,6.80
2023-04-25T18:33:08.202Z,5.80
2023-04-25T18:35:45.114Z,8.83
2023-04-25T18:38:28.135Z,7.20
2023-04-25T18:41:18.385Z,5.67
2023-04-25T18:44:20.084Z,4.67
2023-04-25T18:46:47.740Z,5.67
2023-04-25T18:49:20.764Z,4.90
2023-04-25T18:51:49.590Z,4.83
2023-04-25T18:54:18.109Z,5.20
2023-04-25T18:56:46.124Z,4.17
2023-04-25T18:59:15.957Z,7.73
2023-04-25T19:01:44.125Z,10.30
2023-04-25T19:04:13.463Z,5.90
2023-04-25T19:07:00.187Z,5.80
2023-04-25T19:09:43.812Z,5.37
2023-04-25T19:12:19.682Z,6.60
2023-04-25T19:14:47.324Z,5.13
2023-04-25T19:17:16.653Z,7.40
2023-04-25T19:19:43.472Z,3.83
2023-04-25T19:22:10.791Z,7.80
2023-04-25T19:24:38.448Z,7.70
2023-04-25T19:27:07.122Z,6.47
2023-04-25T19:29:48.763Z,7.37
2023-04-25T19:32:24.768Z,3.67
2023-04-25T19:34:55.120Z,6.63
2023-04-25T19:37:23.917Z,7.30
2023-04-25T19:39:55.055Z,5.90
2023-04-25T19:42:27.510Z,4.70
2023-04-25T19:44:55.522Z,9.03
2023-04-25T19:47:23.482Z,5.53
2023-04-25T19:49:52.704Z,5.07
2023-04-25T19:52:20.571Z,6.17
2023-04-25T19:54:52.210Z,7.47
2023-04-25T19:57:19.534Z,8.37
2023-04-25T19:59:48.270Z,7.63
2023-04-25T20:02:16.379Z,6.10
2023-04-25T20:04:43.536Z,4.00
2023-04-25T20:07:10.768Z,7.97
2023-04-25T20:09:39.170Z,11.20
2023-04-25T20:12:06.871Z,7.77
2023-04-25T20:14:34.295Z,5.93
2023-04-25T20:17:01.798Z,6.03
2023-04-25T20:19:29.292Z,3.63
2023-04-25T20:21:58.105Z,5.37
2023-04-25T20:24:25.913Z,4.60
2023-04-25T20:26:52.875Z,7.13
2023-04-25T20:29:20.261Z,10.43
2023-04-25T20:31:51.562Z,9.30
2023-04-25T20:34:22.671Z,5.83
2023-04-25T20:36:50.956Z,7.17
2023-04-25T20:39:19.971Z,6.80
2023-04-25T20:41:47.892Z,6.40
2023-04-25T20:44:15.884Z,6.63
2023-04-25T20:46:45.380Z,6.53
2023-04-25T20:49:12.342Z,5.20
2023-04-25T20:51:39.642Z,6.93
2023-04-25T20:54:06.699Z,7.53
2023-04-25T20:56:35.731Z,6.67
2023-04-25T20:59:02.806Z,8.80
2023-04-25T21:01:30.180Z,7.07
2023-04-25T21:03:57.871Z,5.97
2023-04-25T21:06:25.066Z,12.10
2023-04-25T21:08:53.437Z,5.87
2023-04-25T21:11:20.537Z,6.80
2023-04-25T21:13:47.972Z,8.40
2023-04-25T21:16:14.692Z,8.57
2023-04-25T21:18:41.345Z,7.90
2023-04-25T21:21:08.652Z,7.50
2023-04-25T21:23:36.195Z,7.23
2023-04-25T21:26:02.955Z,5.00
2023-04-25T21:28:29.662Z,7.70
2023-04-25T21:30:56.953Z,10.13
2023-04-25T21:33:24.457Z,7.80
2023-04-25T21:35:51.101Z,4.40
2023-04-25T21:38:19.137Z,6.37
2023-04-25T21:40:46.129Z,6.30
2023-04-25T21:43:13.213Z,10.30
2023-04-25T21:46:02.136Z,8.03
2023-04-25T21:48:29.054Z,7.57
2023-04-25T21:50:56.261Z,6.93
2023-04-25T21:53:22.916Z,5.37
2023-04-25T21:55:49.639Z,8.90
2023-04-25T21:58:16.568Z,9.17
2023-04-25T22:00:44.460Z,14.07
2023-04-25T22:03:11.706Z,6.40
2023-04-25T22:05:38.582Z,6.57
2023-04-25T22:08:05.190Z,6.80
2023-04-25T22:10:32.041Z,10.83
2023-04-25T22:12:58.797Z,5.57
2023-04-25T22:15:25.728Z,4.93
2023-04-25T22:17:55.387Z,6.37
2023-04-25T22:20:26.375Z,7.73
2023-04-25T22:22:55.720Z,6.63
2023-04-25T22:25:22.715Z,6.53
2023-04-25T22:27:51.493Z,7.77
2023-04-25T22:30:18.501Z,5.70
2023-04-25T22:32:45.238Z,5.77
2023-04-25T22:35:12.177Z,8.07
2023-04-25T22:37:39.224Z,5.20
2023-04-25T22:40:07.213Z,5.27
2023-04-25T22:42:39.826Z,8.40
2023-04-25T22:45:10.987Z,8.67
2023-04-25T22:47:39.076Z,8.10
2023-04-25T22:50:08.533Z,5.87
2023-04-25T22:52:35.500Z,5.73
2023-04-25T22:55:05.260Z,6.90
2023-04-25T22:57:32.073Z,8.23
2023-04-25T22:59:58.905Z,9.00
2023-04-25T23:02:25.980Z,10.93
2023-04-25T23:04:54.023Z,9.30
2023-04-25T23:07:21.042Z,8.80
2023-04-25T23:09:47.818Z,8.80
2023-04-25T23:12:18.100Z,7.27
2023-04-25T23:14:49.130Z,6.30
2023-04-25T23:17:15.794Z,8.23
2023-04-25T23:19:42.444Z,11.80
2023-04-25T23:22:09.530Z,7.23
2023-04-25T23:24:39.164Z,9.33
2023-04-25T23:27:06.055Z,8.07
2023-04-25T23:29:34.203Z,4.83
2023-04-25T23:32:04.285Z,6.33
2023-04-25T23:34:31.901Z,7.80
2023-04-25T23:37:04.320Z,7.77
2023-04-25T23:39:31.277Z,9.60
2023-04-25T23:41:57.907Z,6.00
2023-04-25T23:44:24.630Z,7.00
2023-04-25T23:46:51.412Z,7.83
2023-04-25T23:49:18.094Z,9.50
2023-04-25T23:51:44.795Z,6.23
2023-04-25T23:54:11.521Z,7.97
2023-04-25T23:56:38.403Z,10.43
2023-04-25T23:59:05.054Z,7.10
